createdAt,value
2017-12-31T00:00:13.074Z,86.80
2017-12-31T00:02:47.205Z,86.70
2017-12-31T00:05:19.872Z,86.60
2017-12-31T00:07:54.048Z,86.40
2017-12-31T00:10:27.464Z,86.50
2017-12-31T00:13:00.068Z,86.40
2017-12-31T00:15:33.514Z,85.90
2017-12-31T00:18:06.024Z,85.50
2017-12-31T00:20:39.458Z,85.60
2017-12-31T00:23:13.607Z,85.00
2017-12-31T00:25:46.416Z,85.00
2017-12-31T00:28:20.376Z,83.90
2017-12-31T00:30:53.961Z,83.90
2017-12-31T00:33:26.469Z,84.00
2017-12-31T00:35:59.814Z,83.70
2017-12-31T00:38:33.222Z,83.20
2017-12-31T00:41:05.641Z,82.50
2017-12-31T00:43:39.606Z,81.90
2017-12-31T00:46:12.956Z,81.40
2017-12-31T00:48:45.611Z,81.40
2017-12-31T00:51:18.909Z,81.40
2017-12-31T00:53:52.310Z,81.00
2017-12-31T00:56:25.936Z,80.50
2017-12-31T00:58:59.113Z,80.20
2017-12-31T01:01:31.734Z,80.10
2017-12-31T01:04:04.341Z,79.40
2017-12-31T01:06:36.996Z,79.00
2017-12-31T01:09:10.322Z,78.50
2017-12-31T01:11:42.992Z,78.50
2017-12-31T01:14:17.210Z,78.40
2017-12-31T01:16:49.972Z,78.30
2017-12-31T01:19:22.460Z,78.20
2017-12-31T01:21:55.846Z,77.20
2017-12-31T01:24:28.552Z,77.20
2017-12-31T01:27:01.926Z,77.50
2017-12-31T01:29:34.414Z,77.00
2017-12-31T01:32:07.691Z,77.30
2017-12-31T01:34:40.300Z,77.00
2017-12-31T01:37:13.644Z,76.80
2017-12-31T01:39:46.130Z,76.60
2017-12-31T01:42:19.359Z,76.30
2017-12-31T01:44:52.181Z,76.20
2017-12-31T01:47:25.531Z,76.30
2017-12-31T01:49:59.613Z,75.80
2017-12-31T01:52:32.197Z,75.70
2017-12-31T01:55:06.304Z,75.50
2017-12-31T01:57:39.644Z,75.20
2017-12-31T02:00:12.344Z,75.10
2017-12-31T02:02:45.627Z,75.10
2017-12-31T02:05:18.182Z,75.00
2017-12-31T02:07:51.546Z,74.30
2017-12-31T02:10:24.943Z,74.40
2017-12-31T02:12:58.290Z,74.10
2017-12-31T02:15:31.756Z,73.70
2017-12-31T02:18:05.131Z,74.10
2017-12-31T02:20:38.400Z,73.80
2017-12-31T02:23:11.175Z,73.80
2017-12-31T02:25:43.738Z,73.50
2017-12-31T02:28:17.147Z,73.70
2017-12-31T02:30:49.942Z,73.70
2017-12-31T02:33:23.201Z,73.60
2017-12-31T02:35:55.864Z,73.00
2017-12-31T02:38:29.208Z,72.60
2017-12-31T02:41:01.687Z,72.60
2017-12-31T02:43:35.066Z,72.90
2017-12-31T02:46:07.530Z,72.20
2017-12-31T02:48:39.920Z,72.20
2017-12-31T02:51:12.441Z,72.20
2017-12-31T02:53:45.736Z,72.30
2017-12-31T02:56:19.204Z,71.90
2017-12-31T02:58:52.471Z,72.20
2017-12-31T03:01:25.890Z,71.80
2017-12-31T03:04:00.047Z,72.00
2017-12-31T03:06:33.587Z,71.90
2017-12-31T03:09:06.979Z,71.90
2017-12-31T03:11:39.794Z,71.90
2017-12-31T03:14:12.200Z,72.00
2017-12-31T03:16:45.570Z,72.10
2017-12-31T03:19:18.772Z,72.00
2017-12-31T03:21:51.506Z,72.10
2017-12-31T03:24:25.572Z,72.20
2017-12-31T03:26:58.490Z,72.20
2017-12-31T03:29:30.866Z,72.70
2017-12-31T03:32:03.450Z,72.20
2017-12-31T03:34:35.854Z,71.90
2017-12-31T03:37:08.308Z,72.20
2017-12-31T03:39:40.914Z,72.20
2017-12-31T03:42:14.209Z,72.10
2017-12-31T03:44:47.036Z,72.10
2017-12-31T03:47:21.139Z,72.10
2017-12-31T03:49:53.792Z,72.10
2017-12-31T03:52:26.240Z,72.20
2017-12-31T03:54:58.906Z,72.20
2017-12-31T03:57:31.346Z,71.90
2017-12-31T04:00:03.897Z,71.70
2017-12-31T04:02:37.280Z,71.70
2017-12-31T04:05:09.686Z,71.50
2017-12-31T04:07:43.062Z,71.50
2017-12-31T04:10:15.572Z,71.40
2017-12-31T04:12:49.135Z,71.30
2017-12-31T04:15:23.150Z,70.90
2017-12-31T04:17:55.844Z,71.00
2017-12-31T04:20:29.099Z,70.80
2017-12-31T04:23:02.497Z,70.80
2017-12-31T04:25:36.584Z,70.70
2017-12-31T04:28:10.412Z,70.70
2017-12-31T04:30:43.772Z,70.40
2017-12-31T04:33:16.196Z,70.20
2017-12-31T04:35:49.482Z,70.20
2017-12-31T04:38:21.962Z,70.00
2017-12-31T04:40:55.221Z,70.50
2017-12-31T04:43:28.009Z,70.00
2017-12-31T04:46:00.598Z,69.40
2017-12-31T04:48:32.992Z,69.20
2017-12-31T04:51:05.556Z,69.10
2017-12-31T04:53:38.890Z,68.80
2017-12-31T04:56:12.439Z,69.20
2017-12-31T04:58:45.922Z,68.60
2017-12-31T05:01:18.568Z,68.60
2017-12-31T05:03:51.992Z,68.20
2017-12-31T05:06:25.291Z,68.20
2017-12-31T05:08:58.604Z,67.70
2017-12-31T05:11:32.009Z,67.60
2017-12-31T05:14:05.450Z,67.40
2017-12-31T05:16:38.888Z,67.30
2017-12-31T05:19:12.178Z,67.40
2017-12-31T05:21:44.715Z,67.20
2017-12-31T05:24:17.214Z,66.50
2017-12-31T05:26:50.511Z,67.20
2017-12-31T05:29:23.877Z,65.80
2017-12-31T05:31:56.475Z,65.80
2017-12-31T05:34:29.005Z,66.00
2017-12-31T05:37:02.190Z,65.30
2017-12-31T05:39:34.972Z,65.30
2017-12-31T05:42:08.306Z,65.10
2017-12-31T05:44:40.805Z,65.40
2017-12-31T05:47:14.269Z,64.70
2017-12-31T05:49:46.878Z,65.60
2017-12-31T05:52:20.286Z,64.70
2017-12-31T05:54:52.736Z,65.10
2017-12-31T05:57:26.056Z,65.00
2017-12-31T05:59:58.594Z,64.90
2017-12-31T06:02:31.745Z,64.60
2017-12-31T06:05:05.114Z,64.50
2017-12-31T06:07:38.490Z,64.70
2017-12-31T06:10:11.147Z,64.70
2017-12-31T06:12:43.658Z,64.30
2017-12-31T06:15:17.598Z,64.10
2017-12-31T06:17:50.286Z,64.10
2017-12-31T06:20:22.844Z,64.20
2017-12-31T06:22:55.292Z,64.70
2017-12-31T06:25:29.331Z,64.10
2017-12-31T06:28:02.200Z,64.10
2017-12-31T06:30:35.519Z,63.90
2017-12-31T06:33:08.920Z,63.70
2017-12-31T06:35:42.282Z,64.10
2017-12-31T06:38:14.752Z,64.00
2017-12-31T06:40:48.046Z,63.70
2017-12-31T06:43:21.408Z,63.90
2017-12-31T06:45:54.605Z,64.70
2017-12-31T06:48:27.250Z,64.70
2017-12-31T06:51:00.385Z,64.40
2017-12-31T06:53:32.939Z,64.20
2017-12-31T06:56:05.418Z,64.20
2017-12-31T06:58:38.839Z,64.70
2017-12-31T07:01:12.092Z,64.70
2017-12-31T07:03:46.299Z,64.60
2017-12-31T07:06:19.029Z,64.60
2017-12-31T07:08:51.603Z,64.50
2017-12-31T07:11:24.096Z,65.10
2017-12-31T07:13:57.501Z,65.00
2017-12-31T07:16:29.976Z,65.40
2017-12-31T07:19:02.625Z,65.90
2017-12-31T07:21:35.929Z,65.60
2017-12-31T07:24:08.522Z,65.60
2017-12-31T07:26:41.684Z,66.00
2017-12-31T07:29:14.563Z,66.00
2017-12-31T07:31:47.763Z,66.40
2017-12-31T07:34:20.242Z,66.40
2017-12-31T07:36:53.575Z,66.60
2017-12-31T07:39:26.059Z,67.70
2017-12-31T07:41:58.499Z,67.00
2017-12-31T07:44:31.682Z,67.50
2017-12-31T07:47:04.427Z,67.40
2017-12-31T07:49:38.703Z,67.40
2017-12-31T07:52:11.977Z,67.90
2017-12-31T07:54:44.488Z,67.50
2017-12-31T07:57:17.012Z,67.70
2017-12-31T07:59:50.338Z,66.90
2017-12-31T08:02:22.894Z,67.00
2017-12-31T08:04:56.215Z,66.60
2017-12-31T08:07:28.793Z,66.60
2017-12-31T08:10:02.227Z,66.40
2017-12-31T08:12:36.195Z,66.50
2017-12-31T08:15:08.986Z,66.50
2017-12-31T08:17:42.333Z,66.40
2017-12-31T08:20:14.937Z,65.80
2017-12-31T08:22:49.063Z,65.60
2017-12-31T08:25:22.418Z,65.20
2017-12-31T08:27:55.261Z,65.20
2017-12-31T08:30:28.678Z,64.80
2017-12-31T08:33:01.246Z,64.50
2017-12-31T08:35:33.779Z,64.80
2017-12-31T08:38:07.041Z,63.70
2017-12-31T08:40:39.534Z,63.70
2017-12-31T08:43:11.985Z,63.80
2017-12-31T08:45:45.309Z,63.60
2017-12-31T08:48:18.678Z,63.40
2017-12-31T08:50:52.037Z,63.10
2017-12-31T08:53:25.322Z,63.20
2017-12-31T08:55:58.504Z,63.10
2017-12-31T08:58:31.332Z,63.00
2017-12-31T09:01:04.644Z,62.00
2017-12-31T09:03:37.152Z,61.20
2017-12-31T09:06:09.661Z,60.80
2017-12-31T09:08:43.671Z,60.20
2017-12-31T09:11:16.221Z,60.20
2017-12-31T09:13:49.548Z,59.40
2017-12-31T09:16:23.732Z,58.90
2017-12-31T09:18:57.035Z,58.10
2017-12-31T09:21:29.658Z,58.10
2017-12-31T09:24:03.034Z,58.30
2017-12-31T09:26:35.578Z,57.50
2017-12-31T09:29:08.174Z,57.90
2017-12-31T09:31:41.465Z,56.40
2017-12-31T09:34:14.211Z,56.40
2017-12-31T09:36:47.521Z,56.20
2017-12-31T09:39:20.292Z,55.60
2017-12-31T09:41:53.471Z,54.40
2017-12-31T09:44:26.063Z,54.40
2017-12-31T09:46:59.412Z,53.90
2017-12-31T09:49:32.165Z,53.20
2017-12-31T09:52:05.446Z,53.00
2017-12-31T09:54:39.430Z,54.20
2017-12-31T09:57:12.117Z,54.20
2017-12-31T09:59:45.328Z,52.60
2017-12-31T10:02:17.960Z,52.60
2017-12-31T10:04:50.392Z,52.80
2017-12-31T10:07:23.047Z,53.40
2017-12-31T10:09:57.019Z,51.50
2017-12-31T10:12:29.717Z,51.50
2017-12-31T10:15:03.060Z,52.60
2017-12-31T10:17:35.928Z,52.50
2017-12-31T10:20:09.316Z,52.50
2017-12-31T10:22:42.602Z,53.10
2017-12-31T10:25:15.276Z,53.50
2017-12-31T10:27:47.989Z,52.90
2017-12-31T10:30:21.241Z,53.60
2017-12-31T10:32:53.734Z,54.60
2017-12-31T10:35:27.765Z,54.50
2017-12-31T10:38:00.646Z,54.50
2017-12-31T10:40:33.240Z,54.70
2017-12-31T10:43:06.709Z,54.70
2017-12-31T10:45:39.076Z,55.60
2017-12-31T10:48:12.556Z,55.40
2017-12-31T10:50:45.452Z,55.40
2017-12-31T10:53:18.832Z,55.90
2017-12-31T10:55:51.417Z,55.80
2017-12-31T10:58:27.441Z,56.30
2017-12-31T11:01:00.923Z,56.30
2017-12-31T11:03:33.719Z,56.20
2017-12-31T11:06:07.141Z,56.30
2017-12-31T11:08:40.505Z,56.50
2017-12-31T11:11:13.660Z,57.10
2017-12-31T11:13:46.491Z,57.10
2017-12-31T11:16:19.866Z,57.50
2017-12-31T11:18:53.263Z,57.50
2017-12-31T11:21:26.880Z,57.70
2017-12-31T11:24:01.057Z,58.40
2017-12-31T11:26:33.695Z,58.50
2017-12-31T11:29:06.180Z,57.80
2017-12-31T11:31:38.696Z,58.40
2017-12-31T11:34:11.179Z,57.90
2017-12-31T11:36:44.635Z,58.20
2017-12-31T11:39:16.989Z,57.80
2017-12-31T11:41:49.586Z,58.20
2017-12-31T11:44:22.878Z,58.10
2017-12-31T11:46:56.287Z,57.80
2017-12-31T11:49:29.559Z,58.50
2017-12-31T11:52:03.198Z,57.70
2017-12-31T11:54:36.459Z,57.70
2017-12-31T11:57:10.710Z,58.00
2017-12-31T11:59:43.286Z,58.00
2017-12-31T12:02:16.716Z,58.10
2017-12-31T12:04:49.077Z,58.00
2017-12-31T12:07:21.698Z,58.60
2017-12-31T12:09:54.174Z,57.90
2017-12-31T12:12:27.598Z,58.10
2017-12-31T12:14:59.998Z,58.10
2017-12-31T12:17:32.431Z,58.10
2017-12-31T12:20:05.858Z,58.10
2017-12-31T12:22:39.993Z,58.00
2017-12-31T12:25:12.506Z,58.00
2017-12-31T12:27:45.909Z,58.90
2017-12-31T12:30:18.442Z,58.60
2017-12-31T12:32:52.507Z,58.30
2017-12-31T12:35:24.999Z,58.30
2017-12-31T12:37:57.414Z,58.60
2017-12-31T12:40:29.885Z,59.10
2017-12-31T12:43:02.503Z,58.80
2017-12-31T12:45:35.852Z,58.70
2017-12-31T12:48:09.324Z,58.20
2017-12-31T12:50:41.802Z,58.00
2017-12-31T12:53:15.182Z,58.60
2017-12-31T12:55:47.591Z,58.50
2017-12-31T12:58:19.952Z,58.60
2017-12-31T13:00:54.146Z,59.10
2017-12-31T13:03:26.768Z,59.10
2017-12-31T13:06:00.132Z,58.90
2017-12-31T13:08:33.624Z,58.60
2017-12-31T13:11:06.020Z,58.60
2017-12-31T13:13:38.401Z,58.70
2017-12-31T13:16:11.118Z,58.80
2017-12-31T13:18:44.591Z,58.60
2017-12-31T13:21:17.877Z,58.50
2017-12-31T13:23:50.498Z,58.40
2017-12-31T13:26:23.930Z,58.10
2017-12-31T13:28:58.056Z,58.60
2017-12-31T13:31:30.649Z,58.60
2017-12-31T13:34:03.122Z,58.70
2017-12-31T13:36:35.787Z,58.10
2017-12-31T13:39:08.895Z,58.50
2017-12-31T13:41:43.095Z,58.10
2017-12-31T13:44:15.847Z,58.10
2017-12-31T13:46:48.546Z,58.00
2017-12-31T13:49:21.693Z,58.30
2017-12-31T13:51:54.996Z,58.70
2017-12-31T13:54:28.413Z,58.50
2017-12-31T13:57:01.121Z,58.50
2017-12-31T13:59:33.688Z,58.60
2017-12-31T14:02:07.193Z,59.20
2017-12-31T14:04:40.498Z,59.00
2017-12-31T14:07:14.066Z,58.90
2017-12-31T14:09:47.923Z,59.30
2017-12-31T14:12:20.743Z,59.20
2017-12-31T14:14:53.254Z,58.80
2017-12-31T14:17:25.774Z,59.30
2017-12-31T14:19:58.285Z,59.10
2017-12-31T14:22:31.700Z,59.40
2017-12-31T14:25:04.208Z,59.60
2017-12-31T14:27:36.770Z,59.50
2017-12-31T14:30:09.260Z,59.20
2017-12-31T14:32:42.640Z,59.60
2017-12-31T14:35:15.110Z,59.50
2017-12-31T14:37:48.540Z,59.90
2017-12-31T14:40:21.816Z,59.80
2017-12-31T14:42:54.394Z,60.00
2017-12-31T14:45:27.682Z,59.90
2017-12-31T14:48:00.377Z,59.90
2017-12-31T14:50:33.831Z,59.90
2017-12-31T14:53:07.164Z,60.20
2017-12-31T14:55:39.755Z,60.50
2017-12-31T14:58:13.165Z,60.70
2017-12-31T15:00:46.406Z,61.00
2017-12-31T15:03:19.708Z,61.20
2017-12-31T15:05:53.936Z,61.60
2017-12-31T15:08:26.395Z,61.50
2017-12-31T15:10:59.592Z,61.70
2017-12-31T15:13:32.365Z,61.20
2017-12-31T15:16:05.779Z,61.70
2017-12-31T15:18:39.165Z,61.70
2017-12-31T15:21:11.579Z,61.80
2017-12-31T15:23:45.760Z,62.40
2017-12-31T15:26:19.141Z,63.00
2017-12-31T15:28:51.866Z,63.00
2017-12-31T15:31:25.229Z,63.30
2017-12-31T15:33:58.723Z,63.20
2017-12-31T15:36:31.394Z,63.40
2017-12-31T15:39:03.965Z,63.70
2017-12-31T15:41:37.276Z,64.10
2017-12-31T15:44:09.934Z,64.40
2017-12-31T15:46:43.205Z,64.30
2017-12-31T15:49:16.641Z,64.80
2017-12-31T15:51:50.000Z,65.20
2017-12-31T15:54:22.578Z,65.50
2017-12-31T15:56:56.683Z,66.10
2017-12-31T15:59:29.334Z,66.00
2017-12-31T16:02:02.695Z,66.20
2017-12-31T16:04:35.863Z,66.80
2017-12-31T16:07:08.470Z,66.80
2017-12-31T16:09:40.961Z,66.90
2017-12-31T16:12:13.376Z,67.00
2017-12-31T16:14:46.721Z,67.20
2017-12-31T16:17:20.099Z,68.80
2017-12-31T16:19:53.398Z,68.40
2017-12-31T16:22:26.965Z,68.80
2017-12-31T16:25:01.143Z,69.40
2017-12-31T16:27:34.685Z,69.40
2017-12-31T16:30:08.853Z,69.70
2017-12-31T16:32:41.393Z,69.60
2017-12-31T16:35:13.956Z,69.90
2017-12-31T16:37:47.134Z,69.80
2017-12-31T16:40:20.700Z,69.60
2017-12-31T16:42:53.438Z,69.50
2017-12-31T16:45:26.868Z,69.30
2017-12-31T16:47:59.334Z,69.60
2017-12-31T16:50:31.863Z,69.70
2017-12-31T16:53:04.464Z,69.70
2017-12-31T16:55:37.925Z,70.10
2017-12-31T16:58:10.367Z,70.40
2017-12-31T17:00:44.574Z,70.60
2017-12-31T17:03:17.379Z,70.60
2017-12-31T17:05:50.819Z,70.60
2017-12-31T17:08:23.333Z,70.30
2017-12-31T17:10:55.753Z,70.30
2017-12-31T17:13:29.797Z,70.30
2017-12-31T17:16:02.461Z,70.30
2017-12-31T17:18:35.805Z,69.90
2017-12-31T17:21:09.201Z,70.40
2017-12-31T17:23:42.651Z,69.50
2017-12-31T17:26:16.609Z,70.00
2017-12-31T17:28:50.185Z,69.90
2017-12-31T17:31:22.922Z,69.90
2017-12-31T17:33:56.272Z,70.10
2017-12-31T17:36:30.487Z,70.00
2017-12-31T17:39:03.393Z,70.00
2017-12-31T17:41:36.761Z,70.00
2017-12-31T17:44:10.051Z,70.30
2017-12-31T17:46:43.595Z,70.30
2017-12-31T17:49:16.846Z,70.40
2017-12-31T17:51:49.539Z,70.40
2017-12-31T17:54:23.761Z,71.10
2017-12-31T17:56:56.174Z,70.70
2017-12-31T17:59:29.562Z,70.60
2017-12-31T18:02:02.924Z,70.50
2017-12-31T18:04:36.070Z,70.80
2017-12-31T18:07:08.764Z,70.80
2017-12-31T18:09:41.346Z,71.00
2017-12-31T18:12:15.453Z,70.50
2017-12-31T18:14:48.293Z,70.90
2017-12-31T18:17:21.588Z,71.10
2017-12-31T18:19:54.933Z,71.10
2017-12-31T18:22:27.450Z,71.30
2017-12-31T18:25:01.480Z,71.60
2017-12-31T18:27:34.090Z,71.50
2017-12-31T18:30:07.491Z,71.40
2017-12-31T18:32:40.081Z,71.60
2017-12-31T18:35:13.379Z,71.80
2017-12-31T18:37:46.703Z,71.70
2017-12-31T18:40:20.027Z,71.90
2017-12-31T18:42:52.392Z,72.10
2017-12-31T18:45:24.888Z,72.20
2017-12-31T18:47:57.393Z,72.40
2017-12-31T18:50:29.933Z,72.40
2017-12-31T18:53:03.192Z,72.40
2017-12-31T18:55:36.560Z,72.50
2017-12-31T18:58:09.893Z,72.70
2017-12-31T19:00:43.294Z,73.30
2017-12-31T19:03:15.839Z,72.90
2017-12-31T19:05:49.276Z,73.00
2017-12-31T19:08:23.506Z,73.20
2017-12-31T19:10:56.366Z,73.10
2017-12-31T19:13:29.414Z,73.20
2017-12-31T19:16:02.846Z,73.30
2017-12-31T19:18:35.408Z,73.30
2017-12-31T19:21:08.706Z,73.60
2017-12-31T19:23:42.145Z,73.60
2017-12-31T19:26:14.604Z,73.60
2017-12-31T19:28:47.851Z,73.50
2017-12-31T19:31:20.329Z,73.50
2017-12-31T19:33:52.877Z,73.40
2017-12-31T19:36:26.372Z,73.40
2017-12-31T19:38:59.715Z,73.40
2017-12-31T19:41:32.902Z,73.30
2017-12-31T19:44:05.631Z,73.30
2017-12-31T19:46:38.068Z,73.40
2017-12-31T19:49:10.477Z,73.60
2017-12-31T19:51:42.902Z,73.40
2017-12-31T19:54:15.404Z,74.30
2017-12-31T19:56:47.833Z,73.60
2017-12-31T19:59:20.342Z,73.80
2017-12-31T20:01:53.695Z,74.10
2017-12-31T20:04:27.083Z,74.20
2017-12-31T20:07:00.370Z,74.20
2017-12-31T20:09:33.137Z,74.20
2017-12-31T20:12:06.364Z,74.20
2017-12-31T20:14:38.880Z,74.30
2017-12-31T20:17:11.484Z,74.00
2017-12-31T20:19:44.030Z,74.10
2017-12-31T20:22:16.605Z,74.10
2017-12-31T20:24:49.968Z,74.30
2017-12-31T20:27:22.361Z,74.50
2017-12-31T20:29:54.898Z,74.50
2017-12-31T20:32:29.116Z,74.70
2017-12-31T20:35:01.614Z,74.60
2017-12-31T20:37:35.788Z,75.00
2017-12-31T20:40:08.547Z,75.00
2017-12-31T20:42:41.017Z,75.00
2017-12-31T20:45:13.528Z,75.00
2017-12-31T20:47:45.970Z,75.00
2017-12-31T20:50:18.692Z,75.10
2017-12-31T20:52:52.032Z,75.20
2017-12-31T20:55:26.129Z,75.30
2017-12-31T20:57:58.865Z,75.30
2017-12-31T21:00:31.367Z,75.30
2017-12-31T21:03:04.747Z,75.40
2017-12-31T21:05:37.286Z,75.40
2017-12-31T21:08:10.674Z,75.40
2017-12-31T21:10:44.007Z,75.50
2017-12-31T21:13:16.485Z,75.60
2017-12-31T21:15:49.822Z,75.70
2017-12-31T21:18:23.310Z,75.70
2017-12-31T21:20:56.491Z,76.00
2017-12-31T21:23:29.114Z,76.00
2017-12-31T21:26:02.486Z,76.10
2017-12-31T21:28:34.985Z,76.40
2017-12-31T21:31:09.052Z,76.10
2017-12-31T21:33:41.808Z,76.60
2017-12-31T21:36:15.107Z,76.60
2017-12-31T21:38:47.604Z,76.90
2017-12-31T21:41:20.981Z,77.10
2017-12-31T21:43:53.520Z,77.10
2017-12-31T21:46:26.945Z,77.40
2017-12-31T21:49:00.349Z,77.40
2017-12-31T21:51:33.951Z,77.50
2017-12-31T21:54:07.162Z,77.60
2017-12-31T21:56:40.472Z,77.80
2017-12-31T21:59:13.261Z,77.80
2017-12-31T22:01:46.610Z,77.80
2017-12-31T22:04:19.096Z,77.90
2017-12-31T22:06:52.446Z,77.90
2017-12-31T22:09:24.879Z,77.90
2017-12-31T22:11:59.318Z,77.90
2017-12-31T22:14:32.686Z,77.90
2017-12-31T22:17:05.104Z,77.90
2017-12-31T22:19:38.367Z,77.90
2017-12-31T22:22:11.366Z,77.90
2017-12-31T22:24:44.804Z,78.70
2017-12-31T22:27:18.364Z,78.50
2017-12-31T22:29:52.103Z,78.70
2017-12-31T22:32:25.196Z,78.10
2017-12-31T22:34:58.349Z,77.90
2017-12-31T22:37:31.488Z,77.90
2017-12-31T22:40:04.877Z,77.90
2017-12-31T22:42:37.523Z,77.90
2017-12-31T22:45:10.846Z,77.80
2017-12-31T22:47:43.315Z,77.90
2017-12-31T22:50:16.704Z,77.90
2017-12-31T22:52:50.226Z,78.00
2017-12-31T22:55:23.689Z,78.00
2017-12-31T22:57:57.046Z,78.00
2017-12-31T23:00:31.219Z,78.00
2017-12-31T23:03:03.886Z,78.00
2017-12-31T23:05:36.488Z,78.60
2017-12-31T23:08:09.700Z,78.20
2017-12-31T23:10:42.169Z,78.40
2017-12-31T23:13:15.528Z,78.20
2017-12-31T23:15:48.087Z,78.00
2017-12-31T23:18:21.396Z,78.00
2017-12-31T23:20:54.837Z,78.00
2017-12-31T23:23:27.318Z,78.10
2017-12-31T23:26:00.878Z,78.00
2017-12-31T23:28:34.982Z,78.20
2017-12-31T23:31:07.549Z,78.20
2017-12-31T23:33:40.980Z,78.30
2017-12-31T23:36:15.136Z,78.40
2017-12-31T23:38:47.730Z,78.40
2017-12-31T23:41:21.056Z,77.90
2017-12-31T23:43:54.466Z,78.50
2017-12-31T23:46:27.900Z,78.40
2017-12-31T23:49:01.122Z,78.10
2017-12-31T23:51:33.917Z,78.10
2017-12-31T23:54:08.075Z,77.90
2017-12-31T23:56:40.942Z,77.80
2017-12-31T23:59:13.467Z,77.30
